Accueil
METAR-TAF:

METAR-TAF

Aéroports :

Station RAF de Northolt

Northolt, Angleterre

latitude: 51-33N, longitude: 000-25W, altitude: 38 m

Observation

Le bulletin a été fait il y a 30 minutes, à 20:50 UTC
Vent 5 kt de sud-ouest
Température 13°C
Humidité 88%
Pression 1026 hPa
Visibilité 10 km ou plus

METAR: EGWU 062050Z AUTO 23005KT 9999 NCD 13/11 Q1026

Heure: 22:20 (21:20 UTC)

Prévision

Le bulletin a été fait il y a 4 heures et 34 minutes, à 16:46 UTC
Prévision valable du 06 à 18 UTC au 07 à 12 UTC
Vent 10 kt de sud-ouest
Visibilité 10 km ou plus
Quelques nuages à une hauteur de 3800 ft

TAF: EGWU 061646Z 0618/0712 23010KT 9999 FEW038

Observations et prévisions météorologiques de plus de 4000 aéroports (messages METAR et TAF).

Les stations disponibles sont représentées par des disques jaunes et rouges sur la carte.

Passer la souris dessus pour voir le nom de la station.

Cliquer dessus pour voir les observations et prévisions météorologiques.

Pour changer de carte: cliquez sur les boutons verts avec une croix noire pour zoomer, sur le bouton vert avec un tiret pour effectuer un zoom arrière, ou sur les flèches vertes pour les cartes adjacentes.


METAR-TAF: